BHB weather

Hancock County-Bar Harbor Airport
Bar Harbor, Maine, United States

Public forecast

Using degrees Fahrenheit for public forecast. Weather courtesy of forecast.io.

METAR (pilot weather report)

Retrieved 2019/05/24 18:38 UTC (0 seconds ago):

KBHB 241838Z AUTO 03013G21KT 10SM FEW010 BKN015 OVC023 11/09 A2986 RMK AO2 RAE24 P0000 $

TAF (pilot weather forecast)

Forecast is more than 6 hours old.

Retrieved 2019/05/24 12:22 UTC (6 hours ago):

TAF KBHB 241120Z 2412/2512 05008KT 3SM -RA BR OVC004 FM241400 04013G21KT 5SM -RA OVC007 FM241600 03014G24KT P6SM VCSH OVC015 FM241900 03014G26KT P6SM OVC025 FM242100 36007KT P6SM SCT050